Shawmut, MT (59078)

7:20 AM MDT on July 24, 2016 (GMT -0600)
Harlowton West Side | | Change Station

Elev 4236 ft 46.44 °N, 109.85 °W | Updated 9 minutes ago

Clear
Clear
53.6 °F
Feels Like 53.6 °F
N
4.7
Wind Variable Wind from SW

Today
High -- | Low -- °F
--% Chance of Precip.
Yesterday
High -- | Low -- °F
Precip. -- in
Pressure 30.06 in
Visibility 10.0 miles
Clouds Clear
Dew Point 39 °F
Humidity 57%
Rainfall 0.00 in
Snow Depth Not available.
5:51 AM 8:58 PM
Waning Gibbous, 76% visible
METAR KLWT 241254Z AUTO 13005KT 10SM CLR 12/07 A3015 RMK AO2 SLP179 T01170072
Pressure 30.06 in
Visibility 10.0 miles
Clouds Clear
Dew Point 39 °F
Humidity 57%
Rainfall 0.00 in
Snow Depth Not available.
5:51 AM 8:58 PM
Waning Gibbous, 76% visible
METAR KLWT 241254Z AUTO 13005KT 10SM CLR 12/07 A3015 RMK AO2 SLP179 T01170072

10-Day Weather Forecast

Almanac

Astronomy

Jul. 24, 2016 Rise Set
Actual Time
Civil Twilight
Nautical Twilight
Astronomical Twilight
Moon
Length of Visible Light
Length of Day
Tomorrow will be .
, % of the Moon is Illuminated

Today's Extremes

State Highs State Lows

Community

WunderPhotos

Upload Photos

1,927,055 photos uploaded!

WunderBlog® & News

Nearby

Air Quality

  Air Quality AQ Index Pollutant
Not available.

Snow Depth

Station Depth Elevation

Earthquake Activity

City Distance Mag. Time & Date
Minimum magnitude displayed is 2.5.

Coastal Water Temperatures

Place Temperature

Stations

Nearby Weather Stations

Station Location Temp. Windchill Dew Point Humidity Wind Precip. Elev Updated Type
                   

Watches & Warnings

There are currently no watches in effect.